createdAt,value
2023-03-21T00:00:22.631Z,26.10
2023-03-21T00:01:21.622Z,22.00
2023-03-21T00:02:21.653Z,24.50
2023-03-21T00:03:21.640Z,24.80
2023-03-21T00:04:21.662Z,29.00
2023-03-21T00:05:21.635Z,21.90
2023-03-21T00:06:21.574Z,24.70
2023-03-21T00:07:21.565Z,29.20
2023-03-21T00:08:21.557Z,26.30
2023-03-21T00:09:21.547Z,27.00
2023-03-21T00:10:33.090Z,23.90
2023-03-21T00:11:22.514Z,25.50
2023-03-21T00:12:21.523Z,22.40
2023-03-21T00:13:21.488Z,23.90
2023-03-21T00:14:21.485Z,32.20
2023-03-21T00:15:24.880Z,55.00
2023-03-21T00:16:36.683Z,36.30
2023-03-21T00:17:22.470Z,33.10
2023-03-21T00:18:21.448Z,32.30
2023-03-21T00:19:21.429Z,60.60
2023-03-21T00:20:21.435Z,32.70
2023-03-21T00:21:42.310Z,23.70
2023-03-21T00:22:22.411Z,31.30
2023-03-21T00:23:21.380Z,39.70
2023-03-21T00:24:21.388Z,28.60
2023-03-21T00:25:21.359Z,21.50
2023-03-21T00:26:21.352Z,23.10
2023-03-21T00:27:44.847Z,24.20
2023-03-21T00:28:22.339Z,28.70
2023-03-21T00:29:21.327Z,23.90
2023-03-21T00:30:21.324Z,27.50
2023-03-21T00:31:21.300Z,24.50
2023-03-21T00:32:21.306Z,23.50
2023-03-21T00:33:22.804Z,20.10
2023-03-21T00:34:31.733Z,22.80
2023-03-21T00:35:53.559Z,22.10
2023-03-21T00:36:22.275Z,26.10
2023-03-21T00:37:21.242Z,21.40
2023-03-21T00:38:21.233Z,20.20
2023-03-21T00:39:21.214Z,24.90
2023-03-21T00:40:27.884Z,22.00
2023-03-21T00:41:40.713Z,18.70
2023-03-21T00:42:22.198Z,20.60
2023-03-21T00:43:21.172Z,16.70
2023-03-21T00:44:21.166Z,31.40
2023-03-21T00:45:21.149Z,22.10
2023-03-21T00:46:23.265Z,25.40
2023-03-21T00:47:21.177Z,22.10
2023-03-21T00:48:21.178Z,17.10
2023-03-21T00:49:21.105Z,18.80
2023-03-21T00:50:21.132Z,21.60
2023-03-21T00:51:21.090Z,22.70
2023-03-21T00:52:34.254Z,18.60
2023-03-21T00:53:22.072Z,19.30
2023-03-21T00:54:21.063Z,18.30
2023-03-21T00:55:21.061Z,19.20
2023-03-21T00:56:21.039Z,18.90
2023-03-21T00:57:29.355Z,20.30
2023-03-21T00:58:22.045Z,23.20
2023-03-21T00:59:21.016Z,16.80
2023-03-21T01:00:20.998Z,18.60
2023-03-21T01:01:20.991Z,23.50
2023-03-21T01:02:21.039Z,16.70
2023-03-21T01:03:25.299Z,22.00
2023-03-21T01:04:20.954Z,21.10
2023-03-21T01:05:20.936Z,22.10
2023-03-21T01:06:20.932Z,16.40
2023-03-21T01:07:20.924Z,16.90
2023-03-21T01:08:27.929Z,19.60
2023-03-21T01:09:21.892Z,19.70
2023-03-21T01:10:20.898Z,18.80
2023-03-21T01:11:20.873Z,18.00
2023-03-21T01:12:20.897Z,19.10
2023-03-21T01:13:20.856Z,20.60
2023-03-21T01:14:23.533Z,21.30
2023-03-21T01:15:20.835Z,18.20
2023-03-21T01:16:20.857Z,19.40
2023-03-21T01:17:20.835Z,22.50
2023-03-21T01:18:20.806Z,19.10
2023-03-21T01:19:27.582Z,21.00
2023-03-21T01:20:21.785Z,21.50
2023-03-21T01:21:20.835Z,20.00
2023-03-21T01:22:20.776Z,18.60
2023-03-21T01:23:20.748Z,17.30
2023-03-21T01:24:20.741Z,20.50
2023-03-21T01:25:22.685Z,15.70
2023-03-21T01:26:20.719Z,20.10
2023-03-21T01:27:20.721Z,24.40
2023-03-21T01:28:20.698Z,21.90
2023-03-21T01:29:20.679Z,19.60
2023-03-21T01:30:24.043Z,18.40
2023-03-21T01:31:20.715Z,20.00
2023-03-21T01:32:20.674Z,22.10
2023-03-21T01:33:20.639Z,19.90
2023-03-21T01:34:20.631Z,15.90
2023-03-21T01:35:20.623Z,21.40
2023-03-21T01:36:23.203Z,18.50
2023-03-21T01:37:20.620Z,19.10
2023-03-21T01:38:20.601Z,20.00
2023-03-21T01:39:20.587Z,21.20
2023-03-21T01:40:20.573Z,17.30
2023-03-21T01:41:20.553Z,18.90
2023-03-21T01:42:20.563Z,18.00
2023-03-21T01:43:20.533Z,19.30
2023-03-21T01:44:20.543Z,20.40
2023-03-21T01:45:20.519Z,22.40
2023-03-21T01:46:20.538Z,19.10
2023-03-21T01:47:20.514Z,18.10
2023-03-21T01:48:20.500Z,17.20
2023-03-21T01:49:20.466Z,23.10
2023-03-21T01:50:20.464Z,16.70
2023-03-21T01:51:20.453Z,27.30
2023-03-21T01:52:35.407Z,23.60
2023-03-21T01:53:21.427Z,17.60
2023-03-21T01:54:20.418Z,22.40
2023-03-21T01:55:20.409Z,19.20
2023-03-21T01:56:20.404Z,20.70
2023-03-21T01:57:20.982Z,19.00
2023-03-21T01:58:20.414Z,18.20
2023-03-21T01:59:20.369Z,18.20
2023-03-21T02:00:20.356Z,17.10
2023-03-21T02:01:20.397Z,19.40
2023-03-21T02:02:20.359Z,19.70
2023-03-21T02:03:33.312Z,16.10
2023-03-21T02:04:21.362Z,18.30
2023-03-21T02:05:20.311Z,19.20
2023-03-21T02:06:20.292Z,20.70
2023-03-21T02:07:20.299Z,20.90
2023-03-21T02:08:22.265Z,20.90
2023-03-21T02:09:20.269Z,17.90
2023-03-21T02:10:20.247Z,18.10
2023-03-21T02:11:20.242Z,27.30
2023-03-21T02:12:20.259Z,18.90
2023-03-21T02:13:20.233Z,16.00
2023-03-21T02:14:28.674Z,21.80
2023-03-21T02:15:21.194Z,24.50
2023-03-21T02:16:20.266Z,20.20
2023-03-21T02:17:20.204Z,19.60
2023-03-21T02:18:20.167Z,21.60
2023-03-21T02:19:29.590Z,22.60
2023-03-21T02:20:21.145Z,19.60
2023-03-21T02:21:20.136Z,19.10
2023-03-21T02:22:20.139Z,22.90
2023-03-21T02:23:20.113Z,23.20
2023-03-21T02:24:20.098Z,24.60
2023-03-21T02:25:22.131Z,20.40
2023-03-21T02:26:20.082Z,19.70
2023-03-21T02:27:20.088Z,23.60
2023-03-21T02:28:20.087Z,22.90
2023-03-21T02:29:20.057Z,20.80
2023-03-21T02:30:28.174Z,18.20
2023-03-21T02:31:21.087Z,20.30
2023-03-21T02:32:31.438Z,19.80
2023-03-21T02:33:21.011Z,26.10
2023-03-21T02:34:20.002Z,17.60
2023-03-21T02:35:19.996Z,21.80
2023-03-21T02:36:20.007Z,25.20
2023-03-21T02:37:23.571Z,23.80
2023-03-21T02:38:20.951Z,23.30
2023-03-21T02:39:19.947Z,19.20
2023-03-21T02:40:19.922Z,18.00
2023-03-21T02:41:20.145Z,20.80
2023-03-21T02:42:19.926Z,17.10
2023-03-21T02:43:23.436Z,19.30
2023-03-21T02:44:19.893Z,20.50
2023-03-21T02:45:19.885Z,23.50
2023-03-21T02:46:20.651Z,21.30
2023-03-21T02:47:19.886Z,20.30
2023-03-21T02:48:29.141Z,20.40
2023-03-21T02:49:20.847Z,20.90
2023-03-21T02:50:19.833Z,23.60
2023-03-21T02:51:19.820Z,20.60
2023-03-21T02:52:35.574Z,18.50
2023-03-21T02:53:20.797Z,16.60
2023-03-21T02:54:32.550Z,21.00
2023-03-21T02:55:20.776Z,21.70
2023-03-21T02:56:19.760Z,21.80
2023-03-21T02:57:19.762Z,17.80
2023-03-21T02:58:19.752Z,23.70
2023-03-21T02:59:19.740Z,20.60
2023-03-21T03:00:19.741Z,20.10
2023-03-21T03:01:19.766Z,21.20
2023-03-21T03:02:19.708Z,23.60
2023-03-21T03:03:33.101Z,19.50
2023-03-21T03:04:20.716Z,22.90
2023-03-21T03:05:21.760Z,20.60
2023-03-21T03:06:19.673Z,21.40
2023-03-21T03:07:19.660Z,17.90
2023-03-21T03:08:24.060Z,20.80
2023-03-21T03:09:20.627Z,24.70
2023-03-21T03:10:19.617Z,25.10
2023-03-21T03:11:19.608Z,18.70
2023-03-21T03:12:19.597Z,17.70
2023-03-21T03:13:19.608Z,19.70
2023-03-21T03:15:20.569Z,20.00
2023-03-21T03:16:19.550Z,23.00
2023-03-21T03:17:19.550Z,23.50
2023-03-21T03:18:19.560Z,21.50
2023-03-21T03:19:19.538Z,19.90
2023-03-21T03:20:19.521Z,19.90
2023-03-21T03:21:19.501Z,20.80
2023-03-21T03:22:19.491Z,20.70
2023-03-21T03:23:19.493Z,22.80
2023-03-21T03:24:19.472Z,22.20
2023-03-21T03:25:27.105Z,19.00
2023-03-21T03:26:20.443Z,22.30
2023-03-21T03:27:19.442Z,17.90
2023-03-21T03:28:19.443Z,25.30
2023-03-21T03:29:19.424Z,21.30
2023-03-21T03:30:19.410Z,21.60
2023-03-21T03:31:20.925Z,21.30
2023-03-21T03:32:19.382Z,32.20
2023-03-21T03:33:19.393Z,25.40
2023-03-21T03:34:19.363Z,23.40
2023-03-21T03:35:19.359Z,23.40
2023-03-21T03:36:30.912Z,22.10
2023-03-21T03:37:20.343Z,18.80
2023-03-21T03:38:19.347Z,18.70
2023-03-21T03:39:19.311Z,23.80
2023-03-21T03:40:19.294Z,21.80
2023-03-21T03:41:19.706Z,21.90
2023-03-21T03:42:28.014Z,19.60
2023-03-21T03:43:20.285Z,26.10
2023-03-21T03:44:19.257Z,22.50
2023-03-21T03:45:19.247Z,22.30
2023-03-21T03:46:19.290Z,23.20
2023-03-21T03:47:31.959Z,20.30
2023-03-21T03:48:20.249Z,20.80
2023-03-21T03:49:19.207Z,20.50
2023-03-21T03:50:19.210Z,26.10
2023-03-21T03:51:19.187Z,21.60
2023-03-21T03:52:19.178Z,25.20
2023-03-21T03:53:19.183Z,19.80
2023-03-21T03:54:19.151Z,25.20
2023-03-21T03:55:19.149Z,21.50
2023-03-21T03:56:19.134Z,27.40
2023-03-21T03:57:19.131Z,23.40
2023-03-21T03:58:23.630Z,20.10
2023-03-21T03:59:20.101Z,23.80
2023-03-21T04:00:19.082Z,28.60
2023-03-21T04:01:19.081Z,19.40
2023-03-21T04:02:19.108Z,28.60
2023-03-21T04:03:19.127Z,23.10
2023-03-21T04:04:19.058Z,25.80
2023-03-21T04:05:19.043Z,22.80
2023-03-21T04:06:19.022Z,21.50
2023-03-21T04:07:19.019Z,23.90
2023-03-21T04:08:19.016Z,26.60
2023-03-21T04:09:23.353Z,22.10
2023-03-21T04:10:19.983Z,19.40
2023-03-21T04:11:18.980Z,23.30
2023-03-21T04:12:18.966Z,20.30
2023-03-21T04:13:18.988Z,21.20
2023-03-21T04:14:18.940Z,27.20
2023-03-21T04:15:18.937Z,22.50
2023-03-21T04:16:19.048Z,19.60
2023-03-21T04:17:18.914Z,21.70
2023-03-21T04:18:18.922Z,20.10
2023-03-21T04:19:18.892Z,19.90
2023-03-21T04:20:33.895Z,21.40
2023-03-21T04:21:19.879Z,23.40
2023-03-21T04:22:18.853Z,18.50
2023-03-21T04:23:18.890Z,23.40
2023-03-21T04:24:18.846Z,26.10
2023-03-21T04:25:30.696Z,30.70
2023-03-21T04:26:19.841Z,26.10
2023-03-21T04:27:18.805Z,22.00
2023-03-21T04:28:18.806Z,18.60
2023-03-21T04:29:18.786Z,31.00
2023-03-21T04:30:18.773Z,24.60
2023-03-21T04:31:25.481Z,21.60
2023-03-21T04:32:19.880Z,20.50
2023-03-21T04:33:18.766Z,22.60
2023-03-21T04:34:18.736Z,23.70
2023-03-21T04:35:18.729Z,23.40
2023-03-21T04:36:18.708Z,22.90
2023-03-21T04:37:18.698Z,25.90
2023-03-21T04:38:18.698Z,20.10
2023-03-21T04:39:18.683Z,21.20
2023-03-21T04:40:18.667Z,22.70
2023-03-21T04:41:18.659Z,20.00
2023-03-21T04:42:18.657Z,21.60
2023-03-21T04:43:18.659Z,19.90
2023-03-21T04:44:18.641Z,19.00
2023-03-21T04:45:18.628Z,24.90
2023-03-21T04:46:18.601Z,25.50
2023-03-21T04:47:18.599Z,31.00
2023-03-21T04:48:18.638Z,22.50
2023-03-21T04:49:18.592Z,26.50
2023-03-21T04:50:18.573Z,20.80
2023-03-21T04:51:18.552Z,28.20
2023-03-21T04:52:18.539Z,25.90
2023-03-21T04:53:18.563Z,19.10
2023-03-21T04:54:20.332Z,22.60
2023-03-21T04:55:18.512Z,26.60
2023-03-21T04:56:18.501Z,22.00
2023-03-21T04:57:18.482Z,21.90
2023-03-21T04:58:18.493Z,24.60
2023-03-21T04:59:18.461Z,26.00
2023-03-21T05:00:18.451Z,20.30
2023-03-21T05:01:18.509Z,20.30
2023-03-21T05:02:18.432Z,23.80
2023-03-21T05:03:18.449Z,21.20
2023-03-21T05:04:18.452Z,27.10
2023-03-21T05:05:18.415Z,24.90
2023-03-21T05:06:18.398Z,26.40
2023-03-21T05:07:18.400Z,28.30
2023-03-21T05:08:18.371Z,19.70
2023-03-21T05:09:18.382Z,24.10
2023-03-21T05:10:18.376Z,24.20
2023-03-21T05:11:18.336Z,21.90
2023-03-21T05:12:18.324Z,26.40
2023-03-21T05:13:18.308Z,22.50
2023-03-21T05:14:18.317Z,24.50
2023-03-21T05:15:18.300Z,23.90
2023-03-21T05:16:18.307Z,25.80
2023-03-21T05:17:18.298Z,21.20
2023-03-21T05:18:18.267Z,28.80
2023-03-21T05:19:18.287Z,25.10
2023-03-21T05:20:18.247Z,23.50
2023-03-21T05:21:18.239Z,27.10
2023-03-21T05:22:18.218Z,22.90
2023-03-21T05:23:18.206Z,25.20
2023-03-21T05:24:18.212Z,22.80
2023-03-21T05:25:18.199Z,24.70
2023-03-21T05:26:18.180Z,27.30
2023-03-21T05:27:18.171Z,25.50
2023-03-21T05:28:18.205Z,20.90
2023-03-21T05:29:18.153Z,23.10
2023-03-21T05:30:18.097Z,25.70
2023-03-21T05:31:18.134Z,27.10
2023-03-21T05:32:18.062Z,23.10
2023-03-21T05:33:18.043Z,22.10
2023-03-21T05:34:18.112Z,26.70
2023-03-21T05:35:18.078Z,27.20
2023-03-21T05:36:18.102Z,25.30
2023-03-21T05:37:18.152Z,26.40
2023-03-21T05:38:18.979Z,28.60
2023-03-21T05:39:18.056Z,25.30
2023-03-21T05:40:18.001Z,23.20
2023-03-21T05:41:19.290Z,19.40
2023-03-21T05:42:17.968Z,24.20
2023-03-21T05:43:17.937Z,28.00
2023-03-21T05:44:17.995Z,29.80
2023-03-21T05:45:17.987Z,23.70
2023-03-21T05:46:18.048Z,22.70
2023-03-21T05:47:17.920Z,18.80
2023-03-21T05:48:17.986Z,26.30
2023-03-21T05:49:17.886Z,24.50
2023-03-21T05:50:17.872Z,24.70
2023-03-21T05:51:17.855Z,33.00
2023-03-21T05:52:17.857Z,21.60
2023-03-21T05:53:17.827Z,24.50
2023-03-21T05:54:17.840Z,26.20
2023-03-21T05:55:17.810Z,30.30
2023-03-21T05:56:17.821Z,32.00
2023-03-21T05:57:17.793Z,28.00
2023-03-21T05:58:17.869Z,25.40
2023-03-21T05:59:17.784Z,22.00
2023-03-21T06:00:17.763Z,26.40
2023-03-21T06:01:17.751Z,22.40
2023-03-21T06:02:17.778Z,23.90
2023-03-21T06:03:17.794Z,21.40
2023-03-21T06:04:17.812Z,25.60
2023-03-21T06:05:17.714Z,18.80
2023-03-21T06:06:17.704Z,32.20
2023-03-21T06:07:17.686Z,24.20
2023-03-21T06:08:17.684Z,24.10
2023-03-21T06:09:17.676Z,20.90
2023-03-21T06:10:17.666Z,32.10
2023-03-21T06:11:17.645Z,22.70
2023-03-21T06:12:17.636Z,25.40
2023-03-21T06:13:17.629Z,22.00
2023-03-21T06:14:17.630Z,23.50
2023-03-21T06:15:17.622Z,20.80
2023-03-21T06:16:17.701Z,24.50
2023-03-21T06:17:17.595Z,24.00
2023-03-21T06:18:17.586Z,28.50
2023-03-21T06:19:17.580Z,20.70
2023-03-21T06:20:17.567Z,30.30
2023-03-21T06:21:17.558Z,23.30
2023-03-21T06:22:17.564Z,21.50
2023-03-21T06:23:17.528Z,24.10
2023-03-21T06:24:17.523Z,23.00
2023-03-21T06:25:17.501Z,20.90
2023-03-21T06:26:17.493Z,27.50
2023-03-21T06:27:17.482Z,25.80
2023-03-21T06:28:17.482Z,24.00
2023-03-21T06:29:17.480Z,28.60
2023-03-21T06:30:17.458Z,21.70
2023-03-21T06:31:17.534Z,27.40
2023-03-21T06:32:17.424Z,26.20
2023-03-21T06:33:17.425Z,25.00
2023-03-21T06:34:17.425Z,21.10
2023-03-21T06:35:17.402Z,25.00
2023-03-21T06:36:17.387Z,19.50
2023-03-21T06:37:17.376Z,20.90
2023-03-21T06:38:17.368Z,22.80
2023-03-21T06:39:17.368Z,28.30
2023-03-21T06:40:17.345Z,27.20
2023-03-21T06:41:17.334Z,20.10
2023-03-21T06:42:17.327Z,22.80
2023-03-21T06:43:17.315Z,20.50
2023-03-21T06:44:17.319Z,31.20
2023-03-21T06:45:17.287Z,26.60
2023-03-21T06:46:17.405Z,21.90
2023-03-21T06:47:17.271Z,24.30
2023-03-21T06:48:17.276Z,24.80
2023-03-21T06:49:17.265Z,24.60
2023-03-21T06:50:17.231Z,24.00
2023-03-21T06:51:17.232Z,23.50
2023-03-21T06:52:17.209Z,24.30
2023-03-21T06:53:17.212Z,21.00
2023-03-21T06:54:17.210Z,23.80
2023-03-21T06:55:17.182Z,30.90
2023-03-21T06:56:17.169Z,25.40
2023-03-21T06:57:17.170Z,16.20
2023-03-21T06:58:17.153Z,24.60
2023-03-21T06:59:17.166Z,24.70
2023-03-21T07:00:17.129Z,25.10
2023-03-21T07:01:17.277Z,24.20
2023-03-21T07:02:17.144Z,23.10
2023-03-21T07:03:17.108Z,22.80
2023-03-21T07:04:17.103Z,26.80
2023-03-21T07:05:17.086Z,26.60
2023-03-21T07:06:17.069Z,23.80
2023-03-21T07:07:17.062Z,24.60
2023-03-21T07:08:17.045Z,24.80
2023-03-21T07:09:17.056Z,29.30
2023-03-21T07:10:17.019Z,29.30
2023-03-21T07:11:17.019Z,28.90
2023-03-21T07:12:17.012Z,25.60
2023-03-21T07:13:16.997Z,24.10
2023-03-21T07:14:17.000Z,24.20
2023-03-21T07:15:16.983Z,25.00
2023-03-21T07:16:16.986Z,27.70
2023-03-21T07:17:16.953Z,24.70
2023-03-21T07:18:16.941Z,24.40
2023-03-21T07:19:16.968Z,27.90
2023-03-21T07:20:16.953Z,25.70
2023-03-21T07:21:16.916Z,23.80
2023-03-21T07:22:16.899Z,26.50
2023-03-21T07:23:16.895Z,24.00
2023-03-21T07:24:16.900Z,26.10
2023-03-21T07:25:16.880Z,30.30
2023-03-21T07:26:16.861Z,22.10
2023-03-21T07:27:16.851Z,26.60
2023-03-21T07:28:16.836Z,22.50
2023-03-21T07:29:16.845Z,27.10
2023-03-21T07:30:16.816Z,28.10
2023-03-21T07:31:16.842Z,29.90
2023-03-21T07:32:16.793Z,33.60
2023-03-21T07:33:16.786Z,28.90
2023-03-21T07:34:16.795Z,29.70
2023-03-21T07:35:16.778Z,26.40
2023-03-21T07:36:16.798Z,23.60
2023-03-21T07:37:16.746Z,25.10
2023-03-21T07:38:16.772Z,27.60
2023-03-21T07:39:16.734Z,21.50
2023-03-21T07:40:16.714Z,22.20
2023-03-21T07:42:16.701Z,29.00
2023-03-21T07:43:16.694Z,29.30
2023-03-21T07:44:16.701Z,27.40
2023-03-21T07:45:18.280Z,22.40
2023-03-21T07:46:16.754Z,26.00
2023-03-21T07:47:16.649Z,22.00
2023-03-21T07:48:16.680Z,21.90
2023-03-21T07:49:16.636Z,29.90
2023-03-21T07:50:16.633Z,29.40
2023-03-21T07:51:16.608Z,28.30
2023-03-21T07:52:16.582Z,21.50
2023-03-21T07:53:16.589Z,23.00
2023-03-21T07:54:16.592Z,25.10
2023-03-21T07:55:16.550Z,25.80
2023-03-21T07:56:16.543Z,25.40
2023-03-21T07:57:16.541Z,24.50
2023-03-21T07:58:16.512Z,25.10
2023-03-21T07:59:16.514Z,26.20
2023-03-21T08:00:16.514Z,29.30
2023-03-21T08:01:16.483Z,33.60
2023-03-21T08:02:16.548Z,20.90
2023-03-21T08:03:16.484Z,25.20
2023-03-21T08:04:16.463Z,27.10
2023-03-21T08:05:16.466Z,30.50
2023-03-21T08:06:16.433Z,26.10
2023-03-21T08:07:16.428Z,27.90
2023-03-21T08:08:16.420Z,26.40
2023-03-21T08:09:16.405Z,32.10
2023-03-21T08:10:16.436Z,28.30
2023-03-21T08:11:16.386Z,25.20
2023-03-21T08:12:16.367Z,27.90
2023-03-21T08:13:16.388Z,31.10
2023-03-21T08:14:16.345Z,29.40
2023-03-21T08:15:16.356Z,23.00
2023-03-21T08:16:16.374Z,26.30
2023-03-21T08:17:16.318Z,29.00
2023-03-21T08:18:16.324Z,24.80
2023-03-21T08:19:16.348Z,25.60
2023-03-21T08:20:16.290Z,22.40
2023-03-21T08:21:16.281Z,27.60
2023-03-21T08:22:16.277Z,27.10
2023-03-21T08:23:16.262Z,27.30
2023-03-21T08:24:16.245Z,25.30
2023-03-21T08:25:16.255Z,34.30
2023-03-21T08:26:16.223Z,26.60
2023-03-21T08:27:16.210Z,30.00
2023-03-21T08:28:16.194Z,33.40
2023-03-21T08:29:16.196Z,36.80
2023-03-21T08:30:16.222Z,26.90
2023-03-21T08:31:16.203Z,33.60
2023-03-21T08:32:16.163Z,26.50
2023-03-21T08:33:16.165Z,26.50
2023-03-21T08:34:16.135Z,32.50
2023-03-21T08:35:16.218Z,25.40
2023-03-21T08:36:16.158Z,29.10
2023-03-21T08:37:16.114Z,27.80
2023-03-21T08:38:16.096Z,29.20
2023-03-21T08:39:16.100Z,32.70
2023-03-21T08:40:16.121Z,26.30
2023-03-21T08:41:16.070Z,27.00
2023-03-21T08:42:16.058Z,27.30
2023-03-21T08:43:16.058Z,25.40
2023-03-21T08:44:16.044Z,37.60
2023-03-21T08:45:16.058Z,26.50
2023-03-21T08:46:16.070Z,30.20
2023-03-21T08:47:16.009Z,22.90
2023-03-21T08:48:16.084Z,31.10
2023-03-21T08:49:15.989Z,32.90
2023-03-21T08:50:16.028Z,33.10
2023-03-21T08:51:15.971Z,28.30
2023-03-21T08:52:15.944Z,33.80
2023-03-21T08:53:15.939Z,25.10
2023-03-21T08:54:15.924Z,30.30
2023-03-21T08:55:15.938Z,27.90
2023-03-21T08:56:15.918Z,35.80
2023-03-21T08:57:15.899Z,31.00
2023-03-21T08:58:15.886Z,31.90
2023-03-21T08:59:15.885Z,30.90
2023-03-21T09:00:15.875Z,28.40
2023-03-21T09:01:16.024Z,30.10
2023-03-21T09:02:15.835Z,24.70
2023-03-21T09:03:15.836Z,29.60
2023-03-21T09:04:15.855Z,34.90
2023-03-21T09:05:15.860Z,32.00
2023-03-21T09:06:15.819Z,30.70
2023-03-21T09:07:15.794Z,33.20
2023-03-21T09:08:15.777Z,22.10
2023-03-21T09:09:15.779Z,30.80
2023-03-21T09:10:20.604Z,29.20
2023-03-21T09:11:16.759Z,33.90
2023-03-21T09:12:15.742Z,31.20
2023-03-21T09:13:15.729Z,29.00
2023-03-21T09:14:15.720Z,31.20
2023-03-21T09:15:15.732Z,28.80
2023-03-21T09:16:15.738Z,29.60
2023-03-21T09:17:15.751Z,26.40
2023-03-21T09:18:15.670Z,36.30
2023-03-21T09:19:15.684Z,29.90
2023-03-21T09:20:15.686Z,28.50
2023-03-21T09:21:15.653Z,29.00
2023-03-21T09:22:15.634Z,34.30
2023-03-21T09:23:15.641Z,29.30
2023-03-21T09:24:15.606Z,28.40
2023-03-21T09:25:15.622Z,40.60
2023-03-21T09:26:15.593Z,33.20
2023-03-21T09:27:15.587Z,29.80
2023-03-21T09:28:15.566Z,29.20
2023-03-21T09:29:15.563Z,34.50
2023-03-21T09:30:15.556Z,33.40
2023-03-21T09:31:15.588Z,31.10
2023-03-21T09:32:15.537Z,28.90
2023-03-21T09:33:15.517Z,29.10
2023-03-21T09:34:15.516Z,27.90
2023-03-21T09:35:15.507Z,30.10
2023-03-21T09:36:15.542Z,30.30
2023-03-21T09:37:15.476Z,31.90
2023-03-21T09:38:15.457Z,33.80
2023-03-21T09:39:15.448Z,33.20
2023-03-21T09:40:15.458Z,33.20
2023-03-21T09:41:15.429Z,36.40
2023-03-21T09:42:15.939Z,30.50
2023-03-21T09:43:15.420Z,34.00
2023-03-21T09:44:15.402Z,33.10
2023-03-21T09:45:15.401Z,30.50
2023-03-21T09:46:15.424Z,37.30
2023-03-21T09:47:15.372Z,32.20
2023-03-21T09:48:15.538Z,32.80
2023-03-21T09:49:15.348Z,34.00
2023-03-21T09:50:15.485Z,34.50
2023-03-21T09:51:15.332Z,36.80
2023-03-21T09:52:15.323Z,33.10
2023-03-21T09:53:15.306Z,34.50
2023-03-21T09:54:15.297Z,42.90
2023-03-21T09:55:15.296Z,31.80
2023-03-21T09:56:15.273Z,36.20
2023-03-21T09:57:15.268Z,32.40
2023-03-21T09:58:15.248Z,33.40
2023-03-21T09:59:15.294Z,34.20
2023-03-21T10:00:15.244Z,34.80
2023-03-21T10:01:15.326Z,31.20
2023-03-21T10:02:15.205Z,33.70
2023-03-21T10:03:15.196Z,32.70
2023-03-21T10:04:15.223Z,32.50
2023-03-21T10:05:15.187Z,33.80
2023-03-21T10:06:15.155Z,31.50
2023-03-21T10:07:15.156Z,34.10
2023-03-21T10:08:15.139Z,32.90
2023-03-21T10:09:15.131Z,31.30
2023-03-21T10:10:15.134Z,27.30
2023-03-21T10:11:15.117Z,38.30
2023-03-21T10:12:15.102Z,34.50
2023-03-21T10:13:15.271Z,37.20
2023-03-21T10:14:15.077Z,37.30
2023-03-21T10:15:15.078Z,32.90
2023-03-21T10:16:15.109Z,32.20
2023-03-21T10:17:15.051Z,34.20
2023-03-21T10:18:15.034Z,36.80
2023-03-21T10:19:15.026Z,30.00
2023-03-21T10:20:15.041Z,32.20
2023-03-21T10:21:20.757Z,32.10
2023-03-21T10:22:15.999Z,32.60
2023-03-21T10:23:14.992Z,37.30
2023-03-21T10:24:14.977Z,36.60
2023-03-21T10:25:14.972Z,32.20
2023-03-21T10:26:17.005Z,29.90
2023-03-21T10:27:14.934Z,34.70
2023-03-21T10:28:14.942Z,30.40
2023-03-21T10:29:14.957Z,31.80
2023-03-21T10:30:14.922Z,32.00
2023-03-21T10:31:14.959Z,30.40
2023-03-21T10:32:14.899Z,33.90
2023-03-21T10:33:14.915Z,33.40
2023-03-21T10:34:14.873Z,29.90
2023-03-21T10:35:15.596Z,36.90
2023-03-21T10:36:14.869Z,33.90
2023-03-21T10:37:14.840Z,30.60
2023-03-21T10:38:14.856Z,32.60
2023-03-21T10:39:14.816Z,31.60
2023-03-21T10:40:14.816Z,34.70
2023-03-21T10:41:14.812Z,31.60
2023-03-21T10:42:14.787Z,36.40
2023-03-21T10:43:14.766Z,29.50
2023-03-21T10:44:14.805Z,29.00
2023-03-21T10:45:14.747Z,36.90
2023-03-21T10:46:14.951Z,31.20
2023-03-21T10:47:14.970Z,34.00
2023-03-21T10:48:14.835Z,34.50
2023-03-21T10:49:14.714Z,31.50
2023-03-21T10:50:14.752Z,33.00
2023-03-21T10:51:14.702Z,29.20
2023-03-21T10:52:14.678Z,28.20
2023-03-21T10:53:14.660Z,32.70
2023-03-21T10:54:14.671Z,34.30
2023-03-21T10:55:14.640Z,35.60
2023-03-21T10:56:14.654Z,35.00
2023-03-21T10:57:14.632Z,32.00
2023-03-21T10:58:14.618Z,30.30
2023-03-21T10:59:14.602Z,31.50
2023-03-21T11:00:14.595Z,31.20
2023-03-21T11:01:14.662Z,34.50
2023-03-21T11:02:14.593Z,30.60
2023-03-21T11:03:14.554Z,30.40
2023-03-21T11:04:14.552Z,23.60
2023-03-21T11:05:14.540Z,35.10
2023-03-21T11:06:14.545Z,30.10
2023-03-21T11:07:14.516Z,35.10
2023-03-21T11:08:14.514Z,30.00
2023-03-21T11:09:14.499Z,34.10
2023-03-21T11:10:17.172Z,28.00
2023-03-21T11:11:15.513Z,28.70
2023-03-21T11:12:14.469Z,28.70
2023-03-21T11:13:14.451Z,33.20
2023-03-21T11:14:14.450Z,32.00
2023-03-21T11:15:14.444Z,33.60
2023-03-21T11:16:14.472Z,32.20
2023-03-21T11:17:14.424Z,33.60
2023-03-21T11:18:14.413Z,29.10
2023-03-21T11:19:14.405Z,32.20
2023-03-21T11:20:14.387Z,31.80
2023-03-21T11:21:14.386Z,34.10
2023-03-21T11:22:14.383Z,25.80
2023-03-21T11:23:14.357Z,37.70
2023-03-21T11:24:14.363Z,28.90
2023-03-21T11:25:14.328Z,29.40
2023-03-21T11:26:14.338Z,28.30
2023-03-21T11:27:14.308Z,25.20
2023-03-21T11:28:14.364Z,30.50
2023-03-21T11:29:14.289Z,30.50
2023-03-21T11:30:14.279Z,34.60
2023-03-21T11:31:14.313Z,32.50
2023-03-21T11:32:14.262Z,26.20
2023-03-21T11:33:14.264Z,37.00
2023-03-21T11:34:14.254Z,29.00
2023-03-21T11:35:14.276Z,29.60
2023-03-21T11:36:14.305Z,31.30
2023-03-21T11:37:14.218Z,36.00
2023-03-21T11:38:14.232Z,32.10
2023-03-21T11:39:14.205Z,31.70
2023-03-21T11:40:14.177Z,34.00
2023-03-21T11:41:14.197Z,39.50
2023-03-21T11:42:14.201Z,35.10
2023-03-21T11:43:14.197Z,39.90
2023-03-21T11:44:14.138Z,33.30
2023-03-21T11:45:14.121Z,33.90
2023-03-21T11:46:14.215Z,35.00
2023-03-21T11:47:14.108Z,40.20
2023-03-21T11:48:14.230Z,35.00
2023-03-21T11:49:14.081Z,33.70
2023-03-21T11:50:14.086Z,34.00
2023-03-21T11:51:14.067Z,31.70
2023-03-21T11:52:14.053Z,32.40
2023-03-21T11:53:14.043Z,38.80
2023-03-21T11:54:14.023Z,35.20
2023-03-21T11:55:14.011Z,32.50
2023-03-21T11:56:14.010Z,36.00
2023-03-21T11:57:13.991Z,32.90
2023-03-21T11:58:14.999Z,35.80
2023-03-21T11:59:14.010Z,36.80
2023-03-21T12:00:13.959Z,39.40
2023-03-21T12:01:13.962Z,33.70
2023-03-21T12:02:13.980Z,36.60
2023-03-21T12:03:13.923Z,32.90
2023-03-21T12:04:13.952Z,40.50
2023-03-21T12:05:13.909Z,45.00
2023-03-21T12:06:13.914Z,40.60
2023-03-21T12:07:13.886Z,37.20
2023-03-21T12:08:13.881Z,31.20
2023-03-21T12:09:13.862Z,40.10
2023-03-21T12:10:13.864Z,43.90
2023-03-21T12:11:13.866Z,43.50
2023-03-21T12:12:13.850Z,36.10
2023-03-21T12:13:13.824Z,38.20
2023-03-21T12:14:13.817Z,37.80
2023-03-21T12:15:13.797Z,37.00
2023-03-21T12:16:13.887Z,33.20
2023-03-21T12:17:13.773Z,35.80
2023-03-21T12:18:13.780Z,33.30
2023-03-21T12:19:13.772Z,33.30
2023-03-21T12:20:13.818Z,34.80
2023-03-21T12:21:13.747Z,37.30
2023-03-21T12:22:13.730Z,33.50
2023-03-21T12:23:13.742Z,30.30
2023-03-21T12:24:13.708Z,30.20
2023-03-21T12:25:13.691Z,34.30
2023-03-21T12:26:13.714Z,33.80
2023-03-21T12:27:13.678Z,38.40
2023-03-21T12:28:15.219Z,35.50
2023-03-21T12:29:13.663Z,36.50
2023-03-21T12:30:13.710Z,39.20
2023-03-21T12:31:13.661Z,36.90
2023-03-21T12:32:13.630Z,34.20
2023-03-21T12:33:13.608Z,37.00
2023-03-21T12:34:13.602Z,38.90
2023-03-21T12:35:13.593Z,32.70
2023-03-21T12:36:13.606Z,36.00
2023-03-21T12:37:13.580Z,38.80
2023-03-21T12:38:13.565Z,35.70
2023-03-21T12:39:13.542Z,35.80
2023-03-21T12:40:13.605Z,43.60
2023-03-21T12:41:13.553Z,42.60
2023-03-21T12:42:13.539Z,42.40
2023-03-21T12:43:13.502Z,38.40
2023-03-21T12:44:13.513Z,38.30
2023-03-21T12:45:15.865Z,34.70
2023-03-21T12:46:13.506Z,37.20
2023-03-21T12:47:13.481Z,41.70
2023-03-21T12:48:13.564Z,39.50
2023-03-21T12:49:13.442Z,41.40
2023-03-21T12:50:13.617Z,38.00
2023-03-21T12:51:13.435Z,42.40
2023-03-21T12:52:13.416Z,39.10
2023-03-21T12:53:13.395Z,44.70
2023-03-21T12:54:13.524Z,42.40